Time;durP1;ratioP1;P1;durP2;ratioP2;P2;SDS_P1;SDS_P2;PMS_P1;PMS_P2;Temp;Humidity;BMP_temperature;BMP_pressure;BME280_temperature;BME280_humidity;BME280_pressure;Samples;Min_cycle;Max_cycle;Signal;HPM_P1;HPM_P2
2022/08/18 00:02:22;;;;;;;29.63;8.35;;;18.30;99.90;;;;;;5017266;28;20057;-72
2022/08/18 00:04:48;;;;;;;20.63;8.65;;;18.20;99.90;;;;;;4998060;28;20495;-73
2022/08/18 00:07:17;;;;;;;24.30;8.70;;;18.20;99.90;;;;;;4997712;28;20148;-72
2022/08/18 00:09:43;;;;;;;27.55;9.27;;;18.20;99.90;;;;;;4997931;28;20189;-71
2022/08/18 00:12:20;;;;;;;19.92;9.40;;;18.30;99.90;;;;;;4997290;28;20118;-71
2022/08/18 00:14:46;;;;;;;28.38;9.38;;;18.20;99.90;;;;;;4997841;28;20078;-71
2022/08/18 00:17:14;;;;;;;24.63;9.55;;;18.20;99.90;;;;;;4980720;28;20061;-71
2022/08/18 00:19:39;;;;;;;22.55;9.32;;;18.30;99.90;;;;;;4980131;28;20058;-73
2022/08/18 00:22:05;;;;;;;24.05;9.43;;;18.20;99.90;;;;;;4979896;28;20324;-72
2022/08/18 00:24:31;;;;;;;22.67;8.13;;;18.20;99.90;;;;;;4997698;28;20427;-72
2022/08/18 00:26:57;;;;;;;21.73;9.00;;;18.20;99.90;;;;;;4996920;28;20046;-72
2022/08/18 00:29:23;;;;;;;20.13;8.50;;;18.10;99.90;;;;;;4979931;28;20049;-72
2022/08/18 00:31:49;;;;;;;31.98;9.70;;;18.20;99.90;;;;;;4997329;28;20050;-72
2022/08/18 00:34:14;;;;;;;23.92;10.00;;;18.10;99.90;;;;;;4997078;28;20046;-72
2022/08/18 00:36:40;;;;;;;27.33;10.32;;;18.10;99.90;;;;;;4997100;28;20047;-73
2022/08/18 00:39:06;;;;;;;24.48;11.70;;;18.10;99.90;;;;;;4962900;28;20069;-71
2022/08/18 00:41:32;;;;;;;28.33;10.95;;;18.10;99.90;;;;;;4996831;28;20038;-72
2022/08/18 00:43:58;;;;;;;21.83;11.00;;;18.20;99.90;;;;;;4962531;28;20042;-73
2022/08/18 00:46:27;;;;;;;24.25;10.98;;;18.20;99.90;;;;;;4996546;28;20410;-72
2022/08/18 00:48:53;;;;;;;28.10;11.30;;;18.20;99.90;;;;;;4996980;28;20057;-72
2022/08/18 00:51:33;;;;;;;23.63;10.77;;;18.20;99.90;;;;;;4979984;28;20522;-73
2022/08/18 00:54:16;;;;;;;26.40;11.77;;;18.20;99.90;;;;;;4996914;28;20129;-71
2022/08/18 00:56:49;;;;;;;32.17;13.38;;;18.20;99.90;;;;;;4979148;28;20129;-72
2022/08/18 00:59:17;;;;;;;;;;;18.30;99.90;;;;;;4979621;28;20367;-72
2022/08/18 01:01:45;;;;;;;28.40;13.80;;;18.30;99.90;;;;;;4996843;28;19922;-72
2022/08/18 01:04:35;;;;;;;26.08;12.38;;;18.30;99.90;;;;;;5012465;28;20443;-72
2022/08/18 01:07:07;;;;;;;32.38;14.45;;;18.40;99.90;;;;;;5011290;28;20046;-72
2022/08/18 01:09:32;;;;;;;33.95;15.63;;;18.30;99.90;;;;;;5016164;28;20343;-73
2022/08/18 01:11:58;;;;;;;28.60;14.40;;;18.40;99.90;;;;;;5016095;28;20124;-72
2022/08/18 01:14:24;;;;;;;36.53;15.77;;;18.40;99.90;;;;;;5015741;28;20046;-72
2022/08/18 01:22:31;;;;;;;26.77;13.73;;;18.30;99.90;;;;;;5015829;28;20065;-73
2022/08/18 01:27:44;;;;;;;32.80;13.07;;;18.30;99.90;;;;;;5016150;28;20450;-72
2022/08/18 01:30:14;;;;;;;38.97;15.90;;;18.50;99.90;;;;;;5016026;28;20038;-72
2022/08/18 01:32:43;;;;;;;28.85;12.80;;;18.40;99.90;;;;;;5015945;28;20042;-72
2022/08/18 01:35:10;;;;;;;31.45;11.60;;;18.40;99.90;;;;;;4998323;28;20161;-72
2022/08/18 01:37:36;;;;;;;27.90;12.80;;;18.40;99.90;;;;;;5015817;28;20038;-72
2022/08/18 01:40:05;;;;;;;23.17;11.88;;;18.40;99.90;;;;;;5015796;28;20056;-72
2022/08/18 01:42:31;;;;;;;28.35;12.88;;;18.40;99.90;;;;;;4998679;28;20486;-72
2022/08/18 01:44:57;;;;;;;24.33;10.60;;;18.40;99.90;;;;;;5015877;28;20081;-72
2022/08/18 01:47:22;;;;;;;26.48;11.38;;;18.40;99.90;;;;;;5015551;28;20050;-71
2022/08/18 01:49:48;;;;;;;26.10;11.10;;;18.30;99.90;;;;;;5015495;28;20057;-72
2022/08/18 01:52:19;;;;;;;22.88;9.48;;;18.30;99.90;;;;;;5015368;28;20034;-72
2022/08/18 01:54:46;;;;;;;25.55;10.65;;;18.20;99.90;;;;;;5015155;28;20355;-71
2022/08/18 01:57:13;;;;;;;23.55;10.40;;;18.20;99.90;;;;;;5015368;28;20431;-71
2022/08/18 01:59:39;;;;;;;27.33;10.27;;;18.30;99.90;;;;;;5015174;28;20099;-71
2022/08/18 02:02:05;;;;;;;21.85;9.77;;;18.20;99.90;;;;;;5015228;28;20052;-71
2022/08/18 02:04:33;;;;;;;25.25;9.38;;;18.10;99.90;;;;;;5014551;28;20049;-71
2022/08/18 02:07:01;;;;;;;19.00;9.00;;;18.20;99.90;;;;;;5014951;28;20054;-72
2022/08/18 02:09:27;;;;;;;24.63;10.50;;;18.20;99.90;;;;;;4997891;28;20069;-72
2022/08/18 02:11:53;;;;;;;30.25;10.13;;;18.20;99.90;;;;;;4998050;28;20054;-72
2022/08/18 02:14:19;;;;;;;24.58;9.73;;;18.10;99.90;;;;;;5015065;28;20413;-72
2022/08/18 02:16:45;;;;;;;26.52;9.95;;;18.20;99.90;;;;;;4998846;28;20046;-71
2022/08/18 02:19:11;;;;;;;23.48;9.50;;;18.20;99.90;;;;;;4996775;28;20386;-73
2022/08/18 02:21:37;;;;;;;21.58;8.75;;;18.20;99.90;;;;;;5014909;28;20358;-72
2022/08/18 02:24:03;;;;;;;32.40;11.23;;;18.20;99.90;;;;;;5015503;28;20057;-72
2022/08/18 02:26:29;;;;;;;25.52;10.10;;;18.20;99.90;;;;;;5015268;28;20196;-72
2022/08/18 02:28:55;;;;;;;27.02;10.38;;;18.10;99.90;;;;;;5014146;28;20058;-72
2022/08/18 02:31:23;;;;;;;26.58;10.60;;;18.20;99.90;;;;;;5014873;28;20058;-73
2022/08/18 02:33:50;;;;;;;36.78;10.30;;;18.20;99.90;;;;;;5015221;28;20042;-72
2022/08/18 02:36:15;;;;;;;23.70;10.65;;;18.20;99.90;;;;;;5014851;28;20050;-72
2022/08/18 02:38:42;;;;;;;31.30;10.50;;;18.40;99.90;;;;;;5014801;28;20124;-72
2022/08/18 02:41:11;;;;;;;21.83;9.93;;;18.30;99.90;;;;;;5015103;28;20431;-72
2022/08/18 02:43:37;;;;;;;27.33;11.52;;;18.20;99.90;;;;;;5014590;28;20050;-72
2022/08/18 02:46:04;;;;;;;26.65;10.98;;;18.30;99.90;;;;;;5015179;28;20053;-73
2022/08/18 02:48:33;;;;;;;27.85;11.45;;;18.40;99.90;;;;;;5014505;28;20030;-71
2022/08/18 02:51:08;;;;;;;27.30;11.00;;;18.40;99.90;;;;;;5015028;28;20052;-72
2022/08/18 02:53:36;;;;;;;25.23;10.63;;;18.30;99.90;;;;;;5014802;28;20129;-72
2022/08/18 02:56:22;;;;;;;24.40;11.07;;;18.40;99.90;;;;;;5014809;28;20046;-71
2022/08/18 02:58:52;;;;;;;28.33;10.50;;;18.40;99.90;;;;;;5014938;28;20053;-71
2022/08/18 03:01:22;;;;;;;31.23;11.57;;;18.40;99.90;;;;;;5015070;28;20124;-72
2022/08/18 03:03:48;;;;;;;30.48;10.38;;;18.40;99.90;;;;;;5014028;28;20066;-72
2022/08/18 03:06:16;;;;;;;24.08;10.80;;;18.40;99.90;;;;;;5014334;28;20049;-71
2022/08/18 03:08:42;;;;;;;26.10;11.48;;;18.30;99.90;;;;;;5015338;28;20081;-72
2022/08/18 03:11:07;;;;;;;25.40;10.25;;;18.30;99.90;;;;;;5014860;28;20054;-71
2022/08/18 03:13:33;;;;;;;40.03;10.68;;;18.30;99.90;;;;;;5014995;28;20050;-72
2022/08/18 03:15:58;;;;;;;26.00;11.48;;;18.20;99.90;;;;;;5014581;28;20374;-71
2022/08/18 03:18:24;;;;;;;34.08;12.25;;;18.30;99.90;;;;;;5014263;28;20366;-73
2022/08/18 03:20:50;;;;;;;31.77;12.20;;;18.30;99.90;;;;;;5018153;28;20434;-73
2022/08/18 03:23:16;;;;;;;22.63;11.32;;;18.20;99.90;;;;;;5018241;28;20489;-72
2022/08/18 03:25:46;;;;;;;25.48;11.75;;;18.30;99.90;;;;;;5018506;28;20042;-72
2022/08/18 03:28:13;;;;;;;27.60;12.88;;;18.20;99.90;;;;;;5018042;28;20049;-73
2022/08/18 03:30:39;;;;;;;31.20;11.75;;;18.20;99.90;;;;;;5017864;28;20128;-72
2022/08/18 03:33:05;;;;;;;25.65;11.45;;;18.00;99.90;;;;;;5017950;28;20140;-71
2022/08/18 03:35:33;;;;;;;30.33;13.35;;;18.20;99.90;;;;;;5017953;28;20034;-72
2022/08/18 03:37:59;;;;;;;24.13;12.00;;;18.10;99.90;;;;;;5000286;28;20065;-73
2022/08/18 03:40:25;;;;;;;25.20;12.18;;;18.10;99.90;;;;;;5017821;28;20072;-72
2022/08/18 03:42:51;;;;;;;33.88;13.20;;;18.10;99.90;;;;;;5018414;28;20049;-71
2022/08/18 03:45:16;;;;;;;27.35;12.48;;;18.10;99.90;;;;;;5018178;28;20129;-72
2022/08/18 03:47:44;;;;;;;26.30;13.57;;;18.10;99.90;;;;;;5000450;28;20125;-72
2022/08/18 03:50:10;;;;;;;34.13;13.65;;;18.10;99.90;;;;;;5017477;28;20064;-72
2022/08/18 03:52:37;;;;;;;37.05;14.38;;;18.20;99.90;;;;;;5017673;28;20168;-71
2022/08/18 03:55:04;;;;;;;45.00;15.30;;;18.20;99.90;;;;;;5020056;28;20050;-68
2022/08/18 03:57:31;;;;;;;31.00;13.35;;;18.20;99.90;;;;;;5001484;28;20046;-71
2022/08/18 03:59:57;;;;;;;47.30;15.00;;;18.20;99.90;;;;;;5021896;28;20045;-71
2022/08/18 04:02:23;;;;;;;33.38;13.13;;;18.20;99.90;;;;;;5037195;28;20473;-71
2022/08/18 04:04:49;;;;;;;27.17;13.45;;;18.20;99.90;;;;;;5025711;28;20088;-72
2022/08/18 04:07:16;;;;;;;37.53;15.38;;;18.20;99.90;;;;;;5016593;28;20473;-72
2022/08/18 04:09:42;;;;;;;29.17;13.45;;;18.30;99.90;;;;;;4999046;28;20050;-71
2022/08/18 04:12:14;;;;;;;34.80;14.07;;;18.30;99.90;;;;;;5017290;28;20046;-71
2022/08/18 04:14:42;;;;;;;30.30;13.50;;;18.30;99.90;;;;;;5016799;28;20045;-71
2022/08/18 04:17:08;;;;;;;30.65;14.30;;;18.40;99.90;;;;;;5016805;28;20046;-72
2022/08/18 04:19:36;;;;;;;37.78;14.55;;;18.20;99.90;;;;;;5016934;28;20122;-73
2022/08/18 04:22:02;;;;;;;36.60;15.02;;;18.30;99.90;;;;;;5016720;28;20049;-71
2022/08/18 04:24:29;;;;;;;26.90;14.38;;;18.30;99.90;;;;;;5016986;28;20413;-72
2022/08/18 04:26:56;;;;;;;30.35;14.90;;;18.30;99.90;;;;;;5016967;28;20038;-72
2022/08/18 04:29:23;;;;;;;28.95;13.00;;;18.30;99.90;;;;;;4999428;28;20470;-72
2022/08/18 04:31:50;;;;;;;25.80;13.70;;;18.20;99.90;;;;;;5015524;28;20037;-72
2022/08/18 04:34:17;;;;;;;27.98;14.80;;;18.30;99.90;;;;;;5016882;28;20042;-72
2022/08/18 04:36:43;;;;;;;26.23;14.63;;;18.30;99.90;;;;;;5016962;28;20056;-71
2022/08/18 04:39:10;;;;;;;29.20;13.93;;;18.20;99.90;;;;;;4999335;28;20049;-72
2022/08/18 04:41:38;;;;;;;28.90;13.48;;;18.30;99.90;;;;;;4998530;28;20042;-73
2022/08/18 04:44:06;;;;;;;28.27;13.70;;;18.20;99.90;;;;;;5016799;28;20037;-72
2022/08/18 04:46:36;;;;;;;26.83;14.38;;;18.20;99.90;;;;;;5016262;28;20052;-73
2022/08/18 04:49:02;;;;;;;27.42;13.30;;;18.30;99.90;;;;;;5016880;28;20050;-71
2022/08/18 04:51:28;;;;;;;28.52;14.80;;;18.30;99.90;;;;;;5016710;28;20060;-72
2022/08/18 04:53:56;;;;;;;23.73;13.07;;;18.30;99.90;;;;;;5016902;28;20057;-73
2022/08/18 04:56:26;;;;;;;30.55;13.95;;;18.30;99.90;;;;;;5015995;28;20049;-72
2022/08/18 04:58:52;;;;;;;26.45;12.95;;;18.30;99.90;;;;;;4998645;28;20060;-71
2022/08/18 05:01:20;;;;;;;30.40;13.38;;;18.30;99.90;;;;;;5015919;28;20049;-71
2022/08/18 05:03:48;;;;;;;24.05;12.73;;;18.30;99.90;;;;;;4998992;28;20054;-72
2022/08/18 05:06:13;;;;;;;19.88;10.60;;;18.40;99.90;;;;;;5016766;28;20100;-73
2022/08/18 05:08:39;;;;;;;22.35;12.25;;;18.40;99.90;;;;;;5016306;28;20085;-71
2022/08/18 05:11:05;;;;;;;24.70;11.98;;;18.40;99.90;;;;;;5016283;28;20046;-73
2022/08/18 05:13:31;;;;;;;28.95;12.40;;;18.30;99.90;;;;;;5016160;28;20037;-72
2022/08/18 05:16:02;;;;;;;25.10;12.13;;;18.50;99.90;;;;;;5015714;28;20052;-72
2022/08/18 05:18:30;;;;;;;20.35;12.48;;;18.50;99.90;;;;;;4998274;28;20498;-71
2022/08/18 05:20:56;;;;;;;21.23;12.02;;;18.50;99.90;;;;;;5016618;28;20034;-72
2022/08/18 05:23:23;;;;;;;24.55;12.18;;;18.60;99.90;;;;;;5015719;28;20050;-72
2022/08/18 05:25:49;;;;;;;23.67;12.68;;;18.60;99.90;;;;;;5016104;28;20058;-71
2022/08/18 05:28:15;;;;;;;20.05;11.32;;;18.70;99.90;;;;;;5015731;28;20041;-73
2022/08/18 05:30:41;;;;;;;17.88;10.52;;;18.80;99.90;;;;;;4998022;28;20180;-71
2022/08/18 05:33:10;;;;;;;23.20;11.88;;;18.80;99.90;;;;;;4998718;28;20128;-72
2022/08/18 05:35:45;;;;;;;14.93;9.27;;;18.70;99.90;;;;;;5015663;28;20054;-72
2022/08/18 05:38:29;;;;;;;18.25;10.27;;;18.70;99.90;;;;;;5015787;28;20041;-72
2022/08/18 05:41:04;;;;;;;18.17;9.95;;;18.70;99.90;;;;;;5015508;28;20049;-71
2022/08/18 05:43:30;;;;;;;18.90;10.65;;;18.80;99.90;;;;;;5015357;28;20054;-72
2022/08/18 05:45:58;;;;;;;17.40;10.88;;;18.70;99.90;;;;;;5015503;28;20092;-71
2022/08/18 05:48:24;;;;;;;15.57;9.95;;;18.70;99.90;;;;;;5015303;28;20050;-73
2022/08/18 05:50:50;;;;;;;21.15;10.63;;;18.70;99.90;;;;;;5018201;28;20471;-72
2022/08/18 05:53:18;;;;;;;22.67;11.35;;;18.70;99.90;;;;;;5015471;28;20034;-72
2022/08/18 05:58:44;;;;;;;19.45;11.55;;;18.70;99.90;;;;;;5014822;28;20085;-72
2022/08/18 06:01:29;;;;;;;25.80;12.10;;;18.80;99.90;;;;;;5015417;28;20451;-73
2022/08/18 06:04:05;;;;;;;23.05;11.82;;;18.80;99.90;;;;;;5015264;28;20435;-72
2022/08/18 06:06:34;;;;;;;19.42;11.93;;;18.90;99.90;;;;;;5015500;28;20056;-73
2022/08/18 06:09:18;;;;;;;18.40;11.48;;;19.00;99.90;;;;;;5015124;28;20053;-71
2022/08/18 06:11:44;;;;;;;18.92;12.52;;;19.00;99.90;;;;;;5015156;28;20157;-73
2022/08/18 06:14:12;;;;;;;16.67;11.45;;;19.00;99.90;;;;;;5015336;28;20045;-72
2022/08/18 06:16:46;;;;;;;18.23;12.60;;;19.00;99.90;;;;;;5014813;28;20165;-72
2022/08/18 06:19:51;;;;;;;20.00;12.10;;;19.00;99.90;;;;;;5014796;28;20359;-72
2022/08/18 06:22:38;;;;;;;22.17;11.40;;;18.90;99.90;;;;;;5015173;28;20124;-72
2022/08/18 06:25:34;;;;;;;17.40;10.85;;;18.90;99.90;;;;;;5014892;28;20069;-71
2022/08/18 06:28:14;;;;;;;25.48;11.98;;;19.00;99.90;;;;;;5014979;28;20042;-73
2022/08/18 06:30:54;;;;;;;21.85;11.93;;;19.00;99.90;;;;;;5014584;28;20058;-72
2022/08/18 06:33:38;;;;;;;20.25;11.40;;;19.00;99.90;;;;;;5014683;28;20466;-71
2022/08/18 06:36:18;;;;;;;22.25;11.02;;;19.10;99.90;;;;;;5014906;28;20045;-71
2022/08/18 06:39:10;;;;;;;17.90;11.65;;;19.20;99.90;;;;;;5014758;28;20355;-71
2022/08/18 06:41:45;;;;;;;18.58;10.40;;;19.30;99.90;;;;;;5014729;28;20056;-70
2022/08/18 06:44:15;;;;;;;20.17;10.77;;;19.30;99.90;;;;;;4997472;28;20054;-72
2022/08/18 06:46:44;;;;;;;18.05;11.05;;;19.40;99.90;;;;;;5014943;28;20050;-71
2022/08/18 06:49:20;;;;;;;19.38;10.57;;;19.40;99.90;;;;;;5014537;28;20042;-71
2022/08/18 06:51:46;;;;;;;18.33;11.30;;;19.50;99.90;;;;;;5014729;28;20042;-72
2022/08/18 06:54:20;;;;;;;12.15;8.32;;;19.50;99.90;;;;;;5016058;28;20161;-72
2022/08/18 06:56:52;;;;;;;16.55;9.55;;;19.50;99.90;;;;;;5018705;28;20057;-73
2022/08/18 06:59:26;;;;;;;18.52;9.45;;;19.60;99.90;;;;;;5018445;28;20085;-74
2022/08/18 07:02:18;;;;;;;16.90;10.10;;;19.70;99.90;;;;;;5018985;28;20046;-72
2022/08/18 07:05:05;;;;;;;18.13;8.68;;;19.90;99.90;;;;;;4998510;28;20125;-72
2022/08/18 07:07:40;;;;;;;14.73;8.57;;;20.00;99.90;;;;;;4998997;28;20042;-72
2022/08/18 07:10:28;;;;;;;16.20;8.27;;;20.10;99.90;;;;;;4998656;28;20046;-72
2022/08/18 07:13:11;;;;;;;14.98;8.00;;;20.20;99.90;;;;;;4998718;28;20081;-72
2022/08/18 07:15:36;;;;;;;17.92;6.97;;;20.10;99.90;;;;;;4998605;28;20046;-72
2022/08/18 07:18:06;;;;;;;13.23;6.80;;;20.10;99.90;;;;;;4997827;28;20053;-73
2022/08/18 07:20:42;;;;;;;12.73;6.38;;;20.00;99.90;;;;;;4998445;28;20047;-71
2022/08/18 07:23:08;;;;;;;14.82;6.22;;;20.00;99.90;;;;;;4998687;28;20129;-72
2022/08/18 07:25:49;;;;;;;13.52;5.85;;;19.90;99.90;;;;;;4998167;28;20138;-71
2022/08/18 07:28:31;;;;;;;11.43;6.03;;;19.70;99.90;;;;;;4998601;28;20050;-73
2022/08/18 07:31:16;;;;;;;12.77;5.38;;;19.70;99.90;;;;;;4998279;28;20439;-73
2022/08/18 07:34:04;;;;;;;15.18;5.70;;;19.70;99.90;;;;;;4998058;28;20500;-72
2022/08/18 07:36:36;;;;;;;14.05;5.03;;;19.70;99.90;;;;;;4984536;28;20050;-72
2022/08/18 07:39:10;;;;;;;18.10;5.28;;;19.60;99.90;;;;;;4998198;28;20362;-72
2022/08/18 07:41:41;;;;;;;14.63;5.80;;;19.70;99.90;;;;;;4997863;28;20351;-73
2022/08/18 07:44:35;;;;;;;14.98;5.65;;;19.80;99.90;;;;;;4997617;28;20054;-71
2022/08/18 07:47:05;;;;;;;13.60;4.10;;;19.80;99.90;;;;;;4995185;28;20438;-72
2022/08/18 07:49:34;;;;;;;8.98;3.67;;;19.70;99.90;;;;;;4997900;28;20112;-73
2022/08/18 07:52:20;;;;;;;16.08;3.97;;;19.70;99.90;;;;;;4998009;28;20050;-72
2022/08/18 07:55:08;;;;;;;9.18;3.45;;;19.70;99.90;;;;;;4997758;28;20051;-73
2022/08/18 07:58:13;;;;;;;11.05;3.60;;;19.70;99.90;;;;;;4997916;28;20038;-74
2022/08/18 08:01:05;;;;;;;12.85;3.78;;;19.60;99.90;;;;;;4998143;28;20065;-73
2022/08/18 08:04:06;;;;;;;17.63;3.80;;;19.70;99.90;;;;;;5007932;28;20054;-71
2022/08/18 08:06:49;;;;;;;10.68;4.38;;;19.60;99.90;;;;;;5000636;28;20172;-73
2022/08/18 08:09:18;;;;;;;;;;;19.50;99.90;;;;;;5018071;28;20058;-71
2022/08/18 08:11:57;;;;;;;13.00;3.72;;;19.40;99.90;;;;;;5016637;28;19932;-72
2022/08/18 08:14:53;;;;;;;9.00;3.85;;;19.40;99.90;;;;;;5017315;28;20466;-72
2022/08/18 08:17:28;;;;;;;9.77;3.60;;;19.50;99.90;;;;;;5015935;28;20495;-72
2022/08/18 08:20:08;;;;;;;9.40;3.67;;;19.50;99.90;;;;;;5000399;28;20141;-73
2022/08/18 08:22:59;;;;;;;11.15;4.15;;;19.60;99.90;;;;;;5017103;28;20129;-73
2022/08/18 08:25:39;;;;;;;12.85;3.92;;;20.00;99.90;;;;;;5016957;28;20050;-72
2022/08/18 08:28:46;;;;;;;10.63;3.38;;;20.70;99.90;;;;;;4999805;28;20533;-73
2022/08/18 08:31:20;;;;;;;10.57;3.25;;;21.10;99.90;;;;;;4956083;29;20051;-74
2022/08/18 08:33:54;;;;;;;9.68;3.17;;;21.00;99.90;;;;;;5007850;28;20076;-74
2022/08/18 08:36:34;;;;;;;9.35;3.33;;;20.90;99.90;;;;;;5016633;28;20037;-72
2022/08/18 08:39:10;;;;;;;11.23;3.75;;;20.70;99.90;;;;;;4999241;28;20084;-72
2022/08/18 08:42:00;;;;;;;9.50;2.80;;;20.70;99.90;;;;;;4998656;28;20569;-72
2022/08/18 08:44:49;;;;;;;10.88;2.85;;;20.70;99.90;;;;;;4999369;28;20045;-75
2022/08/18 08:47:28;;;;;;;8.15;2.70;;;20.80;99.90;;;;;;4998359;28;20348;-73
2022/08/18 08:49:59;;;;;;;8.60;2.80;;;21.00;99.90;;;;;;5016600;28;20374;-73
2022/08/18 08:52:35;;;;;;;8.90;2.78;;;21.10;99.90;;;;;;5016441;28;20054;-73
2022/08/18 08:55:11;;;;;;;10.13;2.42;;;21.10;99.90;;;;;;4998878;28;20087;-73
2022/08/18 08:57:52;;;;;;;9.75;2.63;;;21.10;99.90;;;;;;5016029;28;20078;-72
2022/08/18 09:00:18;;;;;;;8.10;2.80;;;21.00;99.90;;;;;;5015289;28;20076;-72
2022/08/18 09:03:01;;;;;;;7.82;2.30;;;20.90;99.90;;;;;;5016155;28;20467;-72
2022/08/18 09:05:33;;;;;;;7.32;2.53;;;21.00;99.90;;;;;;5016335;28;20474;-72
2022/08/18 09:08:24;;;;;;;7.63;2.10;;;20.90;99.90;;;;;;5016352;28;20042;-73
2022/08/18 09:11:22;;;;;;;7.63;2.15;;;20.90;99.90;;;;;;5015817;28;20375;-73
2022/08/18 09:14:12;;;;;;;5.60;2.25;;;21.00;99.90;;;;;;5024217;28;20059;-73
2022/08/18 09:16:41;;;;;;;7.32;2.10;;;21.40;99.90;;;;;;5034773;28;20079;-71
2022/08/18 09:19:29;;;;;;;5.38;2.40;;;21.50;99.90;;;;;;4997959;28;20438;-73
2022/08/18 09:22:25;;;;;;;5.90;2.10;;;21.60;99.90;;;;;;5015705;28;20050;-72
2022/08/18 09:24:53;;;;;;;6.55;2.05;;;21.60;99.90;;;;;;5015007;28;20052;-73
2022/08/18 09:27:36;;;;;;;5.80;2.10;;;21.50;99.90;;;;;;5015243;28;20161;-72
2022/08/18 09:30:05;;;;;;;6.40;2.42;;;21.40;99.90;;;;;;5015311;28;20108;-72
2022/08/18 09:32:49;;;;;;;10.20;2.42;;;21.20;99.90;;;;;;5014941;28;20041;-72
2022/08/18 09:35:47;;;;;;;7.45;2.55;;;21.00;99.90;;;;;;4997495;28;20149;-72
2022/08/18 09:41:32;;;;;;;6.03;2.17;;;21.00;99.90;;;;;;5014281;28;20050;-72
2022/08/18 09:44:11;;;;;;;7.07;2.10;;;21.20;99.90;;;;;;5014766;28;20295;-72
2022/08/18 09:46:42;;;;;;;6.20;2.65;;;21.20;99.90;;;;;;5015088;28;20089;-73
2022/08/18 09:49:26;;;;;;;4.10;2.25;;;21.30;99.90;;;;;;4997481;28;20073;-72
2022/08/18 09:52:21;;;;;;;5.65;2.20;;;21.30;99.90;;;;;;5014976;28;20363;-73
2022/08/18 09:54:59;;;;;;;4.88;2.13;;;21.30;99.90;;;;;;5014414;28;20104;-72
2022/08/18 09:57:37;;;;;;;4.85;2.15;;;21.20;99.90;;;;;;5014481;28;20108;-72
2022/08/18 10:00:03;;;;;;;6.55;2.03;;;21.10;99.90;;;;;;5014699;28;20172;-71
2022/08/18 10:02:28;;;;;;;5.15;1.98;;;21.10;99.90;;;;;;5014610;28;20128;-72
2022/08/18 10:05:17;;;;;;;5.13;2.05;;;21.10;99.90;;;;;;4997444;28;20060;-72
2022/08/18 10:08:01;;;;;;;7.40;2.15;;;21.10;99.90;;;;;;5014899;28;20053;-73
2022/08/18 10:10:53;;;;;;;5.88;1.85;;;21.10;99.90;;;;;;5014475;28;20049;-74
2022/08/18 10:13:39;;;;;;;4.43;1.80;;;21.20;99.90;;;;;;5014062;28;20478;-72
2022/08/18 10:16:13;;;;;;;4.88;1.90;;;21.20;99.90;;;;;;4980280;28;20112;-72
2022/08/18 10:18:59;;;;;;;5.90;2.20;;;21.10;99.90;;;;;;5014110;28;20042;-72
2022/08/18 10:21:49;;;;;;;5.75;2.15;;;21.20;99.90;;;;;;5013659;28;20061;-72
2022/08/18 10:24:18;;;;;;;9.23;2.30;;;21.20;99.90;;;;;;5014072;28;20054;-74
2022/08/18 10:26:43;;;;;;;4.93;2.10;;;21.30;99.90;;;;;;5014540;28;20081;-71
2022/08/18 10:29:31;;;;;;;5.60;1.80;;;21.30;99.90;;;;;;5015629;28;20072;-72
2022/08/18 10:31:57;;;;;;;5.45;2.08;;;21.50;99.90;;;;;;5008025;28;20554;-73
2022/08/18 10:34:47;;;;;;;4.30;1.98;;;21.60;99.90;;;;;;5018607;28;20125;-71
2022/08/18 10:37:33;;;;;;;9.05;2.53;;;21.70;99.90;;;;;;5018281;28;20060;-72
2022/08/18 10:40:12;;;;;;;5.82;2.15;;;21.80;99.90;;;;;;5019721;28;20046;-70
2022/08/18 10:42:52;;;;;;;5.07;1.80;;;21.90;99.90;;;;;;5017810;28;20049;-73
2022/08/18 10:45:23;;;;;;;6.10;1.77;;;22.10;99.90;;;;;;5001071;28;20046;-72
2022/08/18 10:48:16;;;;;;;5.15;1.60;;;22.30;99.90;;;;;;5017689;28;20077;-71
2022/08/18 10:50:52;;;;;;;6.97;1.80;;;22.20;99.90;;;;;;5018236;28;20045;-72
2022/08/18 10:53:25;;;;;;;6.45;2.08;;;22.00;99.90;;;;;;5018169;28;20041;-71
2022/08/18 10:56:00;;;;;;;5.55;2.13;;;21.90;99.90;;;;;;5017759;28;20046;-71
2022/08/18 10:58:56;;;;;;;4.65;1.98;;;21.80;99.90;;;;;;5017420;28;20046;-72
2022/08/18 11:01:27;;;;;;;6.53;1.88;;;21.80;99.90;;;;;;5016870;28;20046;-73
2022/08/18 11:04:02;;;;;;;5.63;2.20;;;21.70;99.90;;;;;;5017724;28;20069;-71
2022/08/18 11:06:35;;;;;;;4.97;1.58;;;21.70;99.90;;;;;;5017768;28;20065;-72
2022/08/18 11:09:01;;;;;;;5.70;2.00;;;21.80;99.90;;;;;;5001279;28;20061;-72
2022/08/18 11:11:36;;;;;;;6.72;2.00;;;22.00;99.90;;;;;;5001079;28;20466;-71
2022/08/18 11:14:22;;;;;;;7.70;2.13;;;22.10;99.90;;;;;;5018303;28;20153;-72
2022/08/18 11:17:04;;;;;;;5.47;1.60;;;22.20;99.90;;;;;;5016863;28;20129;-71
2022/08/18 11:19:40;;;;;;;4.63;2.03;;;22.40;99.90;;;;;;5016195;28;20085;-72
2022/08/18 11:22:19;;;;;;;6.50;1.90;;;22.60;99.90;;;;;;5017657;28;20443;-72
2022/08/18 11:24:44;;;;;;;6.95;1.90;;;22.60;99.90;;;;;;5017570;28;20034;-70
2022/08/18 11:27:20;;;;;;;5.85;2.30;;;22.50;99.90;;;;;;5018069;28;20046;-72
2022/08/18 11:29:46;;;;;;;6.50;1.83;;;22.50;99.90;;;;;;5017253;28;20049;-71
2022/08/18 11:32:27;;;;;;;7.63;2.28;;;22.60;99.90;;;;;;5017559;28;20042;-70
2022/08/18 11:35:10;;;;;;;5.13;1.85;;;22.60;99.90;;;;;;4984181;28;20058;-72
2022/08/18 11:37:44;;;;;;;4.13;1.77;;;22.80;99.90;;;;;;5017247;28;20046;-71
2022/08/18 11:40:22;;;;;;;5.43;1.88;;;22.90;99.90;;;;;;5016642;28;20072;-71
2022/08/18 11:43:08;;;;;;;4.90;1.75;;;23.10;99.90;;;;;;5016999;28;20486;-73
2022/08/18 11:45:46;;;;;;;4.95;2.00;;;23.20;99.90;;;;;;5016873;28;20474;-72
2022/08/18 11:48:20;;;;;;;8.02;2.17;;;23.20;99.90;;;;;;5017161;28;20108;-71
2022/08/18 11:50:48;;;;;;;7.47;1.95;;;22.90;99.90;;;;;;4999917;28;20064;-71
2022/08/18 11:53:35;;;;;;;5.75;2.25;;;22.90;99.90;;;;;;5016599;28;20081;-72
2022/08/18 11:56:16;;;;;;;5.13;2.00;;;22.80;99.90;;;;;;5016317;28;20057;-71
2022/08/18 11:58:49;;;;;;;4.78;2.00;;;22.60;99.90;;;;;;5016818;28;20454;-72
2022/08/18 12:01:32;;;;;;;;;;;22.30;99.90;;;;;;5016632;28;20046;-72
2022/08/18 12:04:14;;;;;;;5.93;1.95;;;22.20;99.90;;;;;;5008232;28;19922;-70
2022/08/18 12:06:54;;;;;;;4.10;2.13;;;22.20;99.90;;;;;;4998007;28;20086;-71
2022/08/18 12:09:22;;;;;;;4.30;1.85;;;22.40;99.90;;;;;;4997464;28;20061;-70
2022/08/18 12:12:16;;;;;;;6.88;2.25;;;22.40;99.90;;;;;;4998000;28;20039;-71
2022/08/18 12:15:23;;;;;;;5.38;2.20;;;22.80;99.90;;;;;;4987989;28;20169;-71
2022/08/18 12:17:49;;;;;;;5.75;1.90;;;23.00;99.90;;;;;;4997392;28;20050;-71
2022/08/18 12:20:15;;;;;;;5.07;1.92;;;23.20;99.90;;;;;;4997694;28;20344;-71
2022/08/18 12:22:43;;;;;;;4.53;1.70;;;23.20;99.90;;;;;;4996930;28;20046;-73
2022/08/18 12:25:13;;;;;;;4.38;2.10;;;23.20;99.90;;;;;;4977982;28;20045;-71
2022/08/18 12:27:39;;;;;;;5.53;1.92;;;23.40;99.90;;;;;;4977449;28;20065;-72
2022/08/18 12:30:07;;;;;;;4.30;1.50;;;23.40;99.90;;;;;;4978097;28;20039;-71
2022/08/18 12:32:34;;;;;;;6.40;2.13;;;23.40;99.90;;;;;;4977873;28;20423;-71
2022/08/18 12:35:01;;;;;;;3.63;1.90;;;23.30;99.90;;;;;;4977795;28;20046;-71
2022/08/18 12:37:28;;;;;;;5.18;1.80;;;23.20;99.90;;;;;;4978060;28;20038;-73
2022/08/18 12:39:54;;;;;;;7.22;2.00;;;23.20;99.90;;;;;;4993628;28;20042;-72
2022/08/18 12:42:20;;;;;;;3.85;1.65;;;23.20;99.90;;;;;;4999668;28;20042;-73
2022/08/18 12:44:47;;;;;;;4.30;2.15;;;23.20;99.90;;;;;;5007109;28;20048;-73
2022/08/18 12:47:22;;;;;;;4.38;1.90;;;23.40;99.90;;;;;;4988575;28;20042;-71
2022/08/18 12:49:48;;;;;;;4.03;1.73;;;23.40;99.90;;;;;;4985010;28;20038;-74
2022/08/18 12:52:15;;;;;;;4.80;1.80;;;23.40;99.90;;;;;;5003702;28;20049;-73
2022/08/18 12:54:42;;;;;;;8.82;2.00;;;23.70;99.90;;;;;;4996660;28;20046;-72
2022/08/18 12:57:22;;;;;;;6.35;2.00;;;23.70;99.90;;;;;;4979413;28;20050;-72
2022/08/18 12:59:48;;;;;;;6.00;1.98;;;23.30;99.90;;;;;;4997042;28;20395;-72
2022/08/18 13:02:14;;;;;;;3.42;1.70;;;23.30;99.90;;;;;;4996751;28;20057;-72
2022/08/18 13:04:40;;;;;;;5.68;2.00;;;23.40;99.90;;;;;;5013432;28;20077;-70
2022/08/18 13:07:06;;;;;;;4.70;1.65;;;23.40;99.90;;;;;;5016457;28;20058;-73
2022/08/18 13:09:35;;;;;;;4.13;1.77;;;23.40;99.90;;;;;;5015759;28;20050;-73
2022/08/18 13:12:00;;;;;;;4.05;2.00;;;23.50;99.90;;;;;;5015785;28;20353;-71
2022/08/18 13:14:27;;;;;;;8.55;1.90;;;23.50;99.90;;;;;;5016230;28;20046;-73
2022/08/18 13:16:53;;;;;;;5.13;1.92;;;23.30;99.90;;;;;;4998736;28;20056;-72
2022/08/18 13:19:18;;;;;;;4.53;1.83;;;23.30;99.90;;;;;;5015704;28;20366;-73
2022/08/18 13:21:44;;;;;;;3.15;1.60;;;23.30;99.90;;;;;;5016060;28;20049;-72